createdAt,value
2023-04-17T00:01:43.657Z,12.07
2023-04-17T00:04:11.600Z,11.60
2023-04-17T00:06:40.038Z,12.17
2023-04-17T00:09:07.039Z,12.30
2023-04-17T00:11:33.974Z,15.10
2023-04-17T00:14:00.941Z,12.90
2023-04-17T00:16:28.048Z,12.20
2023-04-17T00:18:55.820Z,16.40
2023-04-17T00:21:22.969Z,11.97
2023-04-17T00:23:49.972Z,12.00
2023-04-17T00:26:16.934Z,12.83
2023-04-17T00:28:43.925Z,12.80
2023-04-17T00:31:10.993Z,13.77
2023-04-17T00:33:37.953Z,13.50
2023-04-17T00:36:05.531Z,13.47
2023-04-17T00:38:32.452Z,11.30
2023-04-17T00:40:59.418Z,13.80
2023-04-17T00:43:26.421Z,12.40
2023-04-17T00:45:54.496Z,18.30
2023-04-17T00:48:24.311Z,12.50
2023-04-17T00:50:52.750Z,17.40
2023-04-17T00:53:19.725Z,15.87
2023-04-17T00:55:49.668Z,11.80
2023-04-17T00:58:16.642Z,28.27
2023-04-17T01:00:43.886Z,13.73
2023-04-17T01:03:11.441Z,19.10
2023-04-17T01:05:38.530Z,15.70
2023-04-17T01:08:05.880Z,14.80
2023-04-17T01:10:32.859Z,12.83
2023-04-17T01:13:07.806Z,14.17
2023-04-17T01:15:36.300Z,26.63
2023-04-17T01:18:03.772Z,15.40
2023-04-17T01:20:31.363Z,15.63
2023-04-17T01:22:59.296Z,13.10
2023-04-17T01:25:28.055Z,12.60
2023-04-17T01:27:55.182Z,14.13
2023-04-17T01:30:22.179Z,14.43
2023-04-17T01:32:49.164Z,17.20
2023-04-17T01:35:16.139Z,15.00
2023-04-17T01:37:43.096Z,18.20
2023-04-17T01:40:10.734Z,12.70
2023-04-17T01:42:37.638Z,18.60
2023-04-17T01:45:06.318Z,18.63
2023-04-17T01:47:33.273Z,14.47
2023-04-17T01:50:00.714Z,15.03
2023-04-17T01:52:27.634Z,17.77
2023-04-17T01:54:54.620Z,14.20
2023-04-17T01:57:21.886Z,13.83
2023-04-17T01:59:48.967Z,13.20
2023-04-17T02:02:16.223Z,15.57
2023-04-17T02:04:43.405Z,14.30
2023-04-17T02:07:10.361Z,15.10
2023-04-17T02:09:37.298Z,11.97
2023-04-17T02:12:04.480Z,14.60
2023-04-17T02:14:31.507Z,14.10
2023-04-17T02:16:58.437Z,16.93
2023-04-17T02:19:25.604Z,17.97
2023-04-17T02:21:52.621Z,16.73
2023-04-17T02:24:19.590Z,19.57
2023-04-17T02:26:46.774Z,23.93
2023-04-17T02:29:13.917Z,20.10
2023-04-17T02:31:41.625Z,14.57
2023-04-17T02:34:08.607Z,15.00
2023-04-17T02:36:35.532Z,24.70
2023-04-17T02:39:02.478Z,23.00
2023-04-17T02:41:29.474Z,20.27
2023-04-17T02:43:58.055Z,16.70
2023-04-17T02:46:24.981Z,25.77
2023-04-17T02:48:52.024Z,17.13
2023-04-17T02:51:18.938Z,15.40
2023-04-17T02:53:46.104Z,22.73
2023-04-17T02:56:13.068Z,28.73
2023-04-17T02:58:39.953Z,16.37
2023-04-17T03:01:06.940Z,16.80
2023-04-17T03:03:35.350Z,19.50
2023-04-17T03:06:02.853Z,14.53
2023-04-17T03:08:35.439Z,20.40
2023-04-17T03:11:03.483Z,15.23
2023-04-17T03:13:30.855Z,19.53
2023-04-17T03:15:58.616Z,19.87
2023-04-17T03:18:25.895Z,23.27
2023-04-17T03:20:54.040Z,28.20
2023-04-17T03:23:21.057Z,16.70
2023-04-17T03:25:48.764Z,20.03
2023-04-17T03:28:15.818Z,18.60
2023-04-17T03:30:42.716Z,15.47
2023-04-17T03:33:09.690Z,17.20
2023-04-17T03:35:37.510Z,25.73
2023-04-17T03:38:04.488Z,24.70
2023-04-17T03:40:33.200Z,18.90
2023-04-17T03:43:01.240Z,21.63
2023-04-17T03:45:28.255Z,29.37
2023-04-17T03:47:55.316Z,21.37
2023-04-17T03:50:22.256Z,19.70
2023-04-17T03:52:49.196Z,20.07
2023-04-17T03:55:16.960Z,17.37
2023-04-17T03:57:43.890Z,18.50
2023-04-17T04:00:12.397Z,22.83
2023-04-17T04:02:39.467Z,22.63
2023-04-17T04:05:07.443Z,32.90
2023-04-17T04:07:34.554Z,25.57
2023-04-17T04:10:01.452Z,20.40
2023-04-17T04:12:28.473Z,24.63
2023-04-17T04:14:55.400Z,22.43
2023-04-17T04:17:22.347Z,21.03
2023-04-17T04:19:49.309Z,27.70
2023-04-17T04:22:16.716Z,25.53
2023-04-17T04:24:43.674Z,24.27
2023-04-17T04:27:12.802Z,19.93
2023-04-17T04:29:39.728Z,22.10
2023-04-17T04:32:09.758Z,23.43
2023-04-17T04:34:36.846Z,24.47
2023-04-17T04:37:03.787Z,21.03
2023-04-17T04:39:30.765Z,23.47
2023-04-17T04:42:05.822Z,26.73
2023-04-17T04:44:32.848Z,28.80
2023-04-17T04:46:59.891Z,30.90
2023-04-17T04:49:27.138Z,24.13
2023-04-17T04:51:54.101Z,22.90
2023-04-17T04:54:21.150Z,23.67
2023-04-17T04:56:48.104Z,30.77
2023-04-17T04:59:15.304Z,22.43
2023-04-17T05:01:42.945Z,30.47
2023-04-17T05:04:10.108Z,21.60
2023-04-17T05:06:37.436Z,21.60
2023-04-17T05:09:04.492Z,21.07
2023-04-17T05:11:32.973Z,29.27
2023-04-17T05:13:59.900Z,30.37
2023-04-17T05:16:26.857Z,22.03
2023-04-17T05:18:53.999Z,21.90
2023-04-17T05:21:21.125Z,19.00
2023-04-17T05:23:48.098Z,21.40
2023-04-17T05:26:15.145Z,31.40
2023-04-17T05:28:42.068Z,35.43
2023-04-17T05:31:09.243Z,24.60
2023-04-17T05:33:36.291Z,33.23
2023-04-17T05:36:03.302Z,27.73
2023-04-17T05:38:30.238Z,31.43
2023-04-17T05:40:57.176Z,26.00
2023-04-17T05:43:24.116Z,28.83
2023-04-17T05:45:51.082Z,30.90
2023-04-17T05:48:18.062Z,27.00
2023-04-17T05:50:45.630Z,23.80
2023-04-17T05:53:12.613Z,34.93
2023-04-17T05:55:40.197Z,24.40
2023-04-17T05:58:20.498Z,36.43
2023-04-17T06:00:50.828Z,32.67
2023-04-17T06:03:18.653Z,24.20
2023-04-17T06:05:46.978Z,28.27
2023-04-17T06:08:14.100Z,27.70
2023-04-17T06:10:41.071Z,31.33
2023-04-17T06:13:08.512Z,28.30
2023-04-17T06:15:35.434Z,33.73
2023-04-17T06:18:02.475Z,32.60
2023-04-17T06:20:29.449Z,29.20
2023-04-17T06:22:57.241Z,30.20
2023-04-17T06:25:24.269Z,26.73
2023-04-17T06:27:51.248Z,23.43
2023-04-17T06:30:18.261Z,27.30
2023-04-17T06:32:45.253Z,27.73
2023-04-17T06:35:12.302Z,26.53
2023-04-17T06:37:39.248Z,29.97
2023-04-17T06:40:07.225Z,29.97
2023-04-17T06:42:35.388Z,22.63
2023-04-17T06:45:02.406Z,32.80
2023-04-17T06:47:29.471Z,26.70
2023-04-17T06:49:57.977Z,24.57
2023-04-17T06:52:25.223Z,28.07
2023-04-17T06:54:54.881Z,25.33
2023-04-17T06:57:22.349Z,29.63
2023-04-17T06:59:49.553Z,29.33
2023-04-17T07:02:16.701Z,24.07
2023-04-17T07:04:43.801Z,21.60
2023-04-17T07:07:11.946Z,27.03
2023-04-17T07:09:39.071Z,20.80
2023-04-17T07:12:06.065Z,28.47
2023-04-17T07:14:33.627Z,26.63
2023-04-17T07:17:00.696Z,24.17
2023-04-17T07:19:27.656Z,20.73
2023-04-17T07:21:54.568Z,18.67
2023-04-17T07:24:21.480Z,24.63
2023-04-17T07:26:49.609Z,24.50
2023-04-17T07:29:16.859Z,27.90
2023-04-17T07:31:44.171Z,26.73
2023-04-17T07:34:11.181Z,29.03
2023-04-17T07:36:38.128Z,30.43
2023-04-17T07:39:06.507Z,23.80
2023-04-17T07:41:33.515Z,24.77
2023-04-17T07:44:03.316Z,24.53
2023-04-17T07:46:30.440Z,35.77
2023-04-17T07:48:57.595Z,22.27
2023-04-17T07:51:24.670Z,24.20
2023-04-17T07:53:51.562Z,25.80
2023-04-17T07:56:18.530Z,27.93
2023-04-17T07:58:45.516Z,27.70
2023-04-17T08:01:12.930Z,22.70
2023-04-17T08:03:41.741Z,23.97
2023-04-17T08:06:08.965Z,23.80
2023-04-17T08:08:36.266Z,18.97
2023-04-17T08:11:03.903Z,26.43
2023-04-17T08:13:34.404Z,25.87
2023-04-17T08:16:01.628Z,24.87
2023-04-17T08:18:28.596Z,26.03
2023-04-17T08:20:55.563Z,25.37
2023-04-17T08:23:22.661Z,24.17
2023-04-17T08:25:49.753Z,30.30
2023-04-17T08:28:16.950Z,25.93
2023-04-17T08:30:43.899Z,23.20
2023-04-17T08:33:13.364Z,20.70
2023-04-17T08:35:40.472Z,21.07
2023-04-17T08:38:08.295Z,25.10
2023-04-17T08:40:35.369Z,26.57
2023-04-17T08:43:02.813Z,23.77
2023-04-17T08:45:30.040Z,27.87
2023-04-17T08:47:57.088Z,26.03
2023-04-17T08:50:24.350Z,33.40
2023-04-17T08:52:52.713Z,29.63
2023-04-17T08:55:22.335Z,21.93
2023-04-17T08:58:01.167Z,29.90
2023-04-17T09:00:37.089Z,26.47
2023-04-17T09:03:11.237Z,23.80
2023-04-17T09:05:41.793Z,24.67
2023-04-17T09:08:24.160Z,27.47
2023-04-17T09:10:55.854Z,21.87
2023-04-17T09:13:25.791Z,22.80
2023-04-17T09:16:15.825Z,29.23
2023-04-17T09:18:43.465Z,21.03
2023-04-17T09:21:10.649Z,31.33
2023-04-17T09:23:56.401Z,33.57
2023-04-17T09:26:27.510Z,27.67
2023-04-17T09:29:12.451Z,20.03
2023-04-17T09:31:42.399Z,22.07
2023-04-17T09:34:12.030Z,24.93
2023-04-17T09:36:42.089Z,33.37
2023-04-17T09:39:24.582Z,25.20
2023-04-17T09:42:03.966Z,21.17
2023-04-17T09:44:31.363Z,17.77
2023-04-17T09:47:01.343Z,21.60
2023-04-17T09:49:49.562Z,23.10
2023-04-17T09:52:17.124Z,18.27
2023-04-17T09:54:47.303Z,18.13
2023-04-17T09:57:14.273Z,17.33
2023-04-17T09:59:45.879Z,16.40
2023-04-17T10:02:15.530Z,12.90
2023-04-17T10:04:44.879Z,16.00
2023-04-17T10:07:16.645Z,15.00
2023-04-17T10:09:46.940Z,16.80
2023-04-17T10:12:19.157Z,14.20
2023-04-17T10:14:50.154Z,12.13
2023-04-17T10:17:31.637Z,13.70
2023-04-17T10:20:23.640Z,21.20
2023-04-17T10:22:55.971Z,11.33
2023-04-17T10:25:27.994Z,13.13
2023-04-17T10:28:02.555Z,14.13
2023-04-17T10:30:54.850Z,12.80
2023-04-17T10:33:25.673Z,14.03
2023-04-17T10:35:54.001Z,13.00
2023-04-17T10:38:47.299Z,13.03
2023-04-17T10:41:14.246Z,17.90
2023-04-17T10:43:44.308Z,16.50
2023-04-17T10:46:15.110Z,12.57
2023-04-17T10:48:52.536Z,11.93
2023-04-17T10:51:27.551Z,16.43
2023-04-17T10:54:00.258Z,21.20
2023-04-17T10:56:30.663Z,25.80
2023-04-17T10:59:05.513Z,20.07
2023-04-17T11:01:37.281Z,18.83
2023-04-17T11:04:05.191Z,15.80
2023-04-17T11:06:36.987Z,13.13
2023-04-17T11:09:08.073Z,17.88
2023-04-17T11:11:45.227Z,12.33
2023-04-17T11:14:18.095Z,21.77
2023-04-17T11:16:48.296Z,13.10
2023-04-17T11:19:21.490Z,14.17
2023-04-17T11:21:50.996Z,14.57
2023-04-17T11:24:29.560Z,12.83
2023-04-17T11:26:59.694Z,13.60
2023-04-17T11:29:27.931Z,13.90
2023-04-17T11:31:57.226Z,15.50
2023-04-17T11:34:27.080Z,13.80
2023-04-17T11:36:59.929Z,15.77
2023-04-17T11:39:30.546Z,20.60
2023-04-17T11:41:58.012Z,15.60
2023-04-17T11:44:25.844Z,14.77
2023-04-17T11:46:58.784Z,18.90
2023-04-17T11:49:33.015Z,14.60
2023-04-17T11:52:02.202Z,14.60
2023-04-17T11:54:31.426Z,14.27
2023-04-17T11:57:13.541Z,14.67
2023-04-17T11:59:42.539Z,17.47
2023-04-17T12:02:09.999Z,12.97
2023-04-17T12:04:39.710Z,15.73
2023-04-17T12:07:08.904Z,12.70
2023-04-17T12:09:36.618Z,18.23
2023-04-17T12:12:08.278Z,12.57
2023-04-17T12:14:35.842Z,16.10
2023-04-17T12:17:02.925Z,16.47
2023-04-17T12:19:31.781Z,12.87
2023-04-17T12:21:59.753Z,19.37
2023-04-17T12:24:27.191Z,12.50
2023-04-17T12:26:54.642Z,13.30
2023-04-17T12:29:29.535Z,11.97
2023-04-17T12:32:10.346Z,16.00
2023-04-17T12:34:37.493Z,17.40
2023-04-17T12:37:04.484Z,16.03
2023-04-17T12:39:32.688Z,17.63
2023-04-17T12:41:59.670Z,15.20
2023-04-17T12:44:26.898Z,16.30
2023-04-17T12:46:53.909Z,17.13
2023-04-17T12:49:21.017Z,15.80
2023-04-17T12:51:47.954Z,20.77
2023-04-17T12:54:15.035Z,19.47
2023-04-17T12:56:42.075Z,19.20
2023-04-17T12:59:09.015Z,14.00
2023-04-17T13:01:36.101Z,16.40
2023-04-17T13:04:03.685Z,17.13
2023-04-17T13:06:30.731Z,11.40
2023-04-17T13:08:57.659Z,12.93
2023-04-17T13:11:24.584Z,11.50
2023-04-17T13:13:51.507Z,10.87
2023-04-17T13:16:18.533Z,16.30
2023-04-17T13:18:45.565Z,17.43
2023-04-17T13:21:12.513Z,16.87
2023-04-17T13:23:39.476Z,21.33
2023-04-17T13:26:06.419Z,16.17
2023-04-17T13:28:33.345Z,24.10
2023-04-17T13:31:00.327Z,28.23
2023-04-17T13:33:27.275Z,16.03
2023-04-17T13:35:54.230Z,20.30
2023-04-17T13:38:21.212Z,20.73
2023-04-17T13:40:48.101Z,17.50
2023-04-17T13:43:14.981Z,19.90
2023-04-17T13:45:42.434Z,20.53
2023-04-17T13:48:09.384Z,19.67
2023-04-17T13:50:36.469Z,29.57
2023-04-17T13:53:03.458Z,26.00
2023-04-17T13:55:30.425Z,29.20
2023-04-17T13:57:57.817Z,26.23
2023-04-17T14:00:24.864Z,21.00
2023-04-17T14:02:51.958Z,29.30
2023-04-17T14:05:19.009Z,101.50
2023-04-17T14:07:45.886Z,60.67
2023-04-17T14:10:13.764Z,72.03
2023-04-17T14:12:40.930Z,32.70
2023-04-17T14:15:08.702Z,41.03
2023-04-17T14:17:38.625Z,29.90
2023-04-17T14:20:06.781Z,33.67
2023-04-17T14:22:33.687Z,63.43
2023-04-17T14:25:00.582Z,67.23
2023-04-17T14:27:27.669Z,29.30
2023-04-17T14:29:54.619Z,33.40
2023-04-17T14:32:21.542Z,47.47
2023-04-17T14:34:48.446Z,34.97
2023-04-17T14:37:15.457Z,38.23
2023-04-17T14:39:42.344Z,26.70
2023-04-17T14:42:09.242Z,24.43
2023-04-17T14:44:36.235Z,36.97
2023-04-17T14:47:03.475Z,34.97
2023-04-17T14:49:30.554Z,36.53
2023-04-17T14:51:57.617Z,48.33
2023-04-17T14:54:24.610Z,43.67
2023-04-17T14:56:51.719Z,35.17
2023-04-17T14:59:18.744Z,30.30
2023-04-17T15:01:46.301Z,41.50
2023-04-17T15:04:13.457Z,22.57
2023-04-17T15:06:40.561Z,37.60
2023-04-17T15:09:07.487Z,37.07
2023-04-17T15:11:34.450Z,24.17
2023-04-17T15:14:01.478Z,26.53
2023-04-17T15:16:28.792Z,36.07
2023-04-17T15:18:55.703Z,39.80
2023-04-17T15:21:22.618Z,24.80
2023-04-17T15:23:49.597Z,29.03
2023-04-17T15:26:16.552Z,24.90
2023-04-17T15:28:43.518Z,24.37
2023-04-17T15:31:10.532Z,30.53
2023-04-17T15:33:38.173Z,32.20
2023-04-17T15:36:05.219Z,29.90
2023-04-17T15:38:32.276Z,29.33
2023-04-17T15:40:59.438Z,35.43
2023-04-17T15:43:26.934Z,30.23
2023-04-17T15:45:54.938Z,27.80
2023-04-17T15:48:21.911Z,23.07
2023-04-17T15:50:48.805Z,22.63
2023-04-17T15:53:15.841Z,27.30
2023-04-17T15:55:42.767Z,23.80
2023-04-17T15:58:09.654Z,23.33
2023-04-17T16:00:36.623Z,20.27
2023-04-17T16:03:03.873Z,25.33
2023-04-17T16:05:30.978Z,26.53
2023-04-17T16:07:57.910Z,24.60
2023-04-17T16:10:25.253Z,16.63
2023-04-17T16:12:52.217Z,22.10
2023-04-17T16:15:19.334Z,27.73
2023-04-17T16:17:48.615Z,24.83
2023-04-17T16:20:15.947Z,21.73
2023-04-17T16:22:42.850Z,21.10
2023-04-17T16:25:12.173Z,24.90
2023-04-17T16:27:40.321Z,19.43
2023-04-17T16:30:09.651Z,18.13
2023-04-17T16:32:36.617Z,24.87
2023-04-17T16:35:03.731Z,15.67
2023-04-17T16:37:30.911Z,14.00
2023-04-17T16:39:57.925Z,14.93
2023-04-17T16:42:24.841Z,15.30
2023-04-17T16:44:52.022Z,15.33
2023-04-17T16:47:19.049Z,17.53
2023-04-17T16:49:46.107Z,14.87
2023-04-17T16:52:13.021Z,14.40
2023-04-17T16:54:39.967Z,17.07
2023-04-17T16:57:06.890Z,13.57
2023-04-17T16:59:33.786Z,16.77
2023-04-17T17:02:02.442Z,15.57
2023-04-17T17:04:30.538Z,14.87
2023-04-17T17:06:57.807Z,16.70
2023-04-17T17:09:25.782Z,15.37
2023-04-17T17:11:53.039Z,14.23
2023-04-17T17:14:19.991Z,18.27
2023-04-17T17:16:47.043Z,17.20
2023-04-17T17:19:14.849Z,21.10
2023-04-17T17:21:41.997Z,17.00
2023-04-17T17:24:09.080Z,17.80
2023-04-17T17:26:37.052Z,16.37
2023-04-17T17:29:04.797Z,15.40
2023-04-17T17:31:34.104Z,17.90
2023-04-17T17:34:11.945Z,18.03
2023-04-17T17:36:49.349Z,17.80
2023-04-17T17:39:16.756Z,16.90
2023-04-17T17:41:45.844Z,16.57
2023-04-17T17:44:14.529Z,16.50
2023-04-17T17:46:42.114Z,17.17
2023-04-17T17:49:09.240Z,15.90
2023-04-17T17:51:36.167Z,18.17
2023-04-17T17:54:03.096Z,16.03
2023-04-17T17:56:30.224Z,17.23
2023-04-17T17:58:57.224Z,21.53
2023-04-17T18:01:25.017Z,16.20
2023-04-17T18:03:53.209Z,14.87
2023-04-17T18:06:20.938Z,14.77
2023-04-17T18:08:48.072Z,14.20
2023-04-17T18:11:15.149Z,14.53
2023-04-17T18:13:42.098Z,26.80
2023-04-17T18:16:09.205Z,16.50
2023-04-17T18:18:36.556Z,19.23
2023-04-17T18:21:07.524Z,17.77
2023-04-17T18:23:35.224Z,16.23
2023-04-17T18:26:03.228Z,15.83
2023-04-17T18:28:30.198Z,15.07
2023-04-17T18:30:57.310Z,17.70
2023-04-17T18:33:24.650Z,20.53
2023-04-17T18:35:51.911Z,19.87
2023-04-17T18:38:18.826Z,16.90
2023-04-17T18:40:45.762Z,16.47
2023-04-17T18:43:12.707Z,17.90
2023-04-17T18:45:39.658Z,13.33
2023-04-17T18:48:06.787Z,16.00
2023-04-17T18:50:33.751Z,17.40
2023-04-17T18:53:00.732Z,17.00
2023-04-17T18:55:27.674Z,17.83
2023-04-17T18:57:54.592Z,18.97
2023-04-17T19:00:21.700Z,22.43
2023-04-17T19:02:48.776Z,19.10
2023-04-17T19:05:15.954Z,18.00
2023-04-17T19:07:42.922Z,19.43
2023-04-17T19:10:10.574Z,23.00
2023-04-17T19:12:37.519Z,21.57
2023-04-17T19:15:06.343Z,16.90
2023-04-17T19:17:33.331Z,18.13
2023-04-17T19:20:00.300Z,20.37
2023-04-17T19:22:27.259Z,17.33
2023-04-17T19:24:54.228Z,18.00
2023-04-17T19:27:21.156Z,18.13
2023-04-17T19:29:48.087Z,18.83
2023-04-17T19:32:18.048Z,19.00
2023-04-17T19:34:45.186Z,19.77
2023-04-17T19:37:12.394Z,19.13
2023-04-17T19:39:39.318Z,21.20
2023-04-17T19:42:06.384Z,22.13
2023-04-17T19:44:33.337Z,20.90
2023-04-17T19:47:00.388Z,27.30
2023-04-17T19:49:27.275Z,25.93
2023-04-17T19:51:54.503Z,23.40
2023-04-17T19:54:21.498Z,22.50
2023-04-17T19:56:48.461Z,25.40
2023-04-17T19:59:15.690Z,23.70
2023-04-17T20:01:44.418Z,23.83
2023-04-17T20:04:11.854Z,23.53
2023-04-17T20:06:39.816Z,20.87
2023-04-17T20:09:07.065Z,22.23
2023-04-17T20:11:34.526Z,22.13
2023-04-17T20:14:01.588Z,19.80
2023-04-17T20:16:28.658Z,25.80
2023-04-17T20:18:56.686Z,22.60
2023-04-17T20:21:24.213Z,21.83
2023-04-17T20:23:51.202Z,32.70
2023-04-17T20:26:18.482Z,24.10
2023-04-17T20:28:45.535Z,18.20
2023-04-17T20:31:12.464Z,22.50
2023-04-17T20:33:39.493Z,20.90
2023-04-17T20:36:06.565Z,19.30
2023-04-17T20:38:33.764Z,19.63
2023-04-17T20:41:00.859Z,18.90
2023-04-17T20:43:27.819Z,22.80
2023-04-17T20:45:54.749Z,20.90
2023-04-17T20:48:22.017Z,26.37
2023-04-17T20:50:49.039Z,21.40
2023-04-17T20:53:15.993Z,21.80
2023-04-17T20:55:43.012Z,23.30
2023-04-17T20:58:10.510Z,23.17
2023-04-17T21:00:44.489Z,19.30
2023-04-17T21:03:21.318Z,20.73
2023-04-17T21:05:48.300Z,20.23
2023-04-17T21:08:15.332Z,23.33
2023-04-17T21:10:42.237Z,26.47
2023-04-17T21:13:09.182Z,21.03
2023-04-17T21:15:36.150Z,17.40
2023-04-17T21:18:03.174Z,20.90
2023-04-17T21:20:30.340Z,21.50
2023-04-17T21:22:57.256Z,31.40
2023-04-17T21:25:24.253Z,21.27
2023-04-17T21:27:51.181Z,20.63
2023-04-17T21:30:18.121Z,16.60
2023-04-17T21:32:47.069Z,23.70
2023-04-17T21:35:14.118Z,27.03
2023-04-17T21:37:40.991Z,26.37
2023-04-17T21:40:08.780Z,18.17
2023-04-17T21:42:35.667Z,26.93
2023-04-17T21:45:02.656Z,21.70
2023-04-17T21:47:29.598Z,17.83
2023-04-17T21:49:56.678Z,20.53
2023-04-17T21:52:23.643Z,20.83
2023-04-17T21:54:50.542Z,27.90
2023-04-17T21:57:17.684Z,20.53
2023-04-17T21:59:44.603Z,16.57
2023-04-17T22:02:11.826Z,20.00
2023-04-17T22:04:38.889Z,19.40
2023-04-17T22:07:06.571Z,20.03
2023-04-17T22:09:33.500Z,18.57
2023-04-17T22:12:00.412Z,19.20
2023-04-17T22:14:27.391Z,20.80
2023-04-17T22:16:54.371Z,21.87
2023-04-17T22:19:21.404Z,17.20
2023-04-17T22:21:48.353Z,19.60
2023-04-17T22:24:15.478Z,18.63
2023-04-17T22:26:42.535Z,21.17
2023-04-17T22:29:09.454Z,21.93
2023-04-17T22:31:36.549Z,16.90
2023-04-17T22:34:03.682Z,18.40
2023-04-17T22:36:31.119Z,21.10
2023-04-17T22:38:58.243Z,20.63
2023-04-17T22:41:25.199Z,20.80
2023-04-17T22:43:52.210Z,17.67
2023-04-17T22:46:19.124Z,22.17
2023-04-17T22:48:46.236Z,20.13
2023-04-17T22:51:13.488Z,34.43
2023-04-17T22:53:40.532Z,19.07
2023-04-17T22:56:12.279Z,17.53
2023-04-17T22:58:39.252Z,19.30
2023-04-17T23:01:06.425Z,17.67
2023-04-17T23:03:34.917Z,19.90
2023-04-17T23:06:01.924Z,18.37
2023-04-17T23:08:30.918Z,23.60
2023-04-17T23:11:01.659Z,18.47
2023-04-17T23:13:29.453Z,20.03
2023-04-17T23:15:56.491Z,17.00
2023-04-17T23:18:23.783Z,16.03
2023-04-17T23:20:50.752Z,20.30
2023-04-17T23:23:20.645Z,17.03
2023-04-17T23:25:47.617Z,17.47
2023-04-17T23:28:14.741Z,18.17
2023-04-17T23:30:41.689Z,19.23
2023-04-17T23:33:09.706Z,23.50
2023-04-17T23:35:36.684Z,14.57
2023-04-17T23:38:03.693Z,17.60
2023-04-17T23:40:32.608Z,17.93
2023-04-17T23:43:00.092Z,16.40
2023-04-17T23:45:27.035Z,18.43
2023-04-17T23:47:54.013Z,17.60
2023-04-17T23:50:21.128Z,18.60
2023-04-17T23:52:48.045Z,15.83
2023-04-17T23:55:15.373Z,15.67
2023-04-17T23:57:42.303Z,21.70
